sensor_id;sensor_type;location;lat;lon;timestamp;pressure;altitude;pressure_sealevel;temperature;humidity
78562;BME280;68963;52.138;5.446;2024-01-11T00:02:00;103365.06;;;-5.37;89.48
78562;BME280;68963;52.138;5.446;2024-01-11T00:04:27;103371.03;;;-5.38;89.93
78562;BME280;68963;52.138;5.446;2024-01-11T00:06:54;103368.50;;;-5.39;89.71
78562;BME280;68963;52.138;5.446;2024-01-11T00:09:20;103368.53;;;-5.42;90.15
78562;BME280;68963;52.138;5.446;2024-01-11T00:11:47;103374.59;;;-5.46;90.39
78562;BME280;68963;52.138;5.446;2024-01-11T00:14:13;103366.09;;;-5.48;90.68
78562;BME280;68963;52.138;5.446;2024-01-11T00:16:41;103371.22;;;-5.50;91.03
78562;BME280;68963;52.138;5.446;2024-01-11T00:19:07;103374.75;;;-5.57;90.97
78562;BME280;68963;52.138;5.446;2024-01-11T00:21:34;103369.59;;;-5.57;91.44
78562;BME280;68963;52.138;5.446;2024-01-11T00:24:03;103373.09;;;-5.60;91.62
78562;BME280;68963;52.138;5.446;2024-01-11T00:26:30;103371.41;;;-5.64;91.80
78562;BME280;68963;52.138;5.446;2024-01-11T00:28:56;103366.34;;;-5.67;92.09
78562;BME280;68963;52.138;5.446;2024-01-11T00:31:23;103375.72;;;-5.67;92.29
78562;BME280;68963;52.138;5.446;2024-01-11T00:33:50;103364.66;;;-5.69;92.46
78562;BME280;68963;52.138;5.446;2024-01-11T00:36:19;103372.38;;;-5.72;92.37
78562;BME280;68963;52.138;5.446;2024-01-11T00:38:46;103364.72;;;-5.74;92.89
78562;BME280;68963;52.138;5.446;2024-01-11T00:41:13;103372.41;;;-5.75;93.36
78562;BME280;68963;52.138;5.446;2024-01-11T00:43:40;103364.72;;;-5.75;93.27
78562;BME280;68963;52.138;5.446;2024-01-11T00:46:06;103362.19;;;-5.77;93.59
78562;BME280;68963;52.138;5.446;2024-01-11T00:48:33;103354.53;;;-5.80;93.26
78562;BME280;68963;52.138;5.446;2024-01-11T00:51:00;103364.78;;;-5.80;93.31
78562;BME280;68963;52.138;5.446;2024-01-11T00:53:26;103358.84;;;-5.84;93.45
78562;BME280;68963;52.138;5.446;2024-01-11T00:55:57;103361.47;;;-5.88;93.89
78562;BME280;68963;52.138;5.446;2024-01-11T00:58:24;103371.78;;;-5.91;94.18
78562;BME280;68963;52.138;5.446;2024-01-11T01:00:50;103365.00;;;-5.95;94.28
78562;BME280;68963;52.138;5.446;2024-01-11T01:03:20;103363.28;;;-5.95;94.79
78562;BME280;68963;52.138;5.446;2024-01-11T01:05:46;103366.75;;;-5.96;94.46
78562;BME280;68963;52.138;5.446;2024-01-11T01:08:14;103365.00;;;-5.97;94.56
78562;BME280;68963;52.138;5.446;2024-01-11T01:10:41;103357.34;;;-5.98;94.82
78562;BME280;68963;52.138;5.446;2024-01-11T01:13:07;103369.38;;;-6.02;95.11
78562;BME280;68963;52.138;5.446;2024-01-11T01:15:34;103367.69;;;-6.04;95.76
78562;BME280;68963;52.138;5.446;2024-01-11T01:18:00;103372.84;;;-6.06;95.61
78562;BME280;68963;52.138;5.446;2024-01-11T01:20:27;103367.69;;;-6.04;95.66
78562;BME280;68963;52.138;5.446;2024-01-11T01:22:54;103373.72;;;-6.07;95.32
78562;BME280;68963;52.138;5.446;2024-01-11T01:25:21;103378.03;;;-6.11;95.75
78562;BME280;68963;52.138;5.446;2024-01-11T01:27:48;103379.75;;;-6.13;96.47
78562;BME280;68963;52.138;5.446;2024-01-11T01:30:14;103381.47;;;-6.13;96.67
78562;BME280;68963;52.138;5.446;2024-01-11T01:32:41;103377.19;;;-6.13;96.49
78562;BME280;68963;52.138;5.446;2024-01-11T01:35:08;103384.03;;;-6.13;96.50
78562;BME280;68963;52.138;5.446;2024-01-11T01:37:35;103387.47;;;-6.16;96.62
78562;BME280;68963;52.138;5.446;2024-01-11T01:40:01;103380.69;;;-6.18;97.41
78562;BME280;68963;52.138;5.446;2024-01-11T01:42:28;103378.97;;;-6.18;97.94
78562;BME280;68963;52.138;5.446;2024-01-11T01:44:55;103383.25;;;-6.20;97.48
78562;BME280;68963;52.138;5.446;2024-01-11T01:47:21;103396.94;;;-6.22;97.79
78562;BME280;68963;52.138;5.446;2024-01-11T01:49:48;103394.44;;;-6.25;98.21
78562;BME280;68963;52.138;5.446;2024-01-11T01:52:16;103395.28;;;-6.25;98.51
78562;BME280;68963;52.138;5.446;2024-01-11T01:54:43;103394.44;;;-6.25;98.33
78562;BME280;68963;52.138;5.446;2024-01-11T01:57:10;103392.72;;;-6.25;98.53
78562;BME280;68963;52.138;5.446;2024-01-11T01:59:38;103388.44;;;-6.26;98.79
78562;BME280;68963;52.138;5.446;2024-01-11T02:02:06;103396.16;;;-6.27;98.65
78562;BME280;68963;52.138;5.446;2024-01-11T02:04:33;103399.63;;;-6.32;98.70
78562;BME280;68963;52.138;5.446;2024-01-11T02:07:01;103408.19;;;-6.33;99.38
78562;BME280;68963;52.138;5.446;2024-01-11T02:09:28;103403.94;;;-6.35;99.01
78562;BME280;68963;52.138;5.446;2024-01-11T02:11:55;103409.94;;;-6.39;99.82
78562;BME280;68963;52.138;5.446;2024-01-11T02:14:21;103421.09;;;-6.42;99.95
78562;BME280;68963;52.138;5.446;2024-01-11T02:16:48;103424.50;;;-6.43;100.00
78562;BME280;68963;52.138;5.446;2024-01-11T02:19:17;103418.53;;;-6.45;100.00
78562;BME280;68963;52.138;5.446;2024-01-11T02:21:46;103414.28;;;-6.46;100.00
78562;BME280;68963;52.138;5.446;2024-01-11T02:24:14;103404.03;;;-6.46;100.00
78562;BME280;68963;52.138;5.446;2024-01-11T02:26:58;103404.03;;;-6.46;100.00
78562;BME280;68963;52.138;5.446;2024-01-11T02:29:26;103400.66;;;-6.48;100.00
78562;BME280;68963;52.138;5.446;2024-01-11T02:31:54;103397.22;;;-6.50;100.00
78562;BME280;68963;52.138;5.446;2024-01-11T02:34:23;103398.94;;;-6.50;100.00
78562;BME280;68963;52.138;5.446;2024-01-11T02:36:50;103394.69;;;-6.51;100.00
78562;BME280;68963;52.138;5.446;2024-01-11T02:39:19;103399.81;;;-6.51;100.00
78562;BME280;68963;52.138;5.446;2024-01-11T02:41:47;103400.66;;;-6.52;100.00
78562;BME280;68963;52.138;5.446;2024-01-11T02:44:14;103396.41;;;-6.53;100.00
78562;BME280;68963;52.138;5.446;2024-01-11T02:46:41;103392.16;;;-6.56;100.00
78562;BME280;68963;52.138;5.446;2024-01-11T02:49:07;103387.91;;;-6.57;100.00
78562;BME280;68963;52.138;5.446;2024-01-11T02:51:34;103388.75;;;-6.57;100.00
78562;BME280;68963;52.138;5.446;2024-01-11T02:54:02;103391.34;;;-6.58;100.00
78562;BME280;68963;52.138;5.446;2024-01-11T02:56:28;103384.50;;;-6.61;100.00
78562;BME280;68963;52.138;5.446;2024-01-11T02:58:55;103397.38;;;-6.65;100.00
78562;BME280;68963;52.138;5.446;2024-01-11T03:01:22;103393.97;;;-6.67;100.00
78562;BME280;68963;52.138;5.446;2024-01-11T03:03:48;103387.16;;;-6.68;100.00
78562;BME280;68963;52.138;5.446;2024-01-11T03:06:18;103388.84;;;-6.67;100.00
78562;BME280;68963;52.138;5.446;2024-01-11T03:08:48;103384.63;;;-6.70;100.00
78562;BME280;68963;52.138;5.446;2024-01-11T03:11:16;103397.44;;;-6.71;100.00
78562;BME280;68963;52.138;5.446;2024-01-11T03:13:45;103400.00;;;-6.73;100.00
78562;BME280;68963;52.138;5.446;2024-01-11T03:16:11;103403.41;;;-6.74;100.00
78562;BME280;68963;52.138;5.446;2024-01-11T03:18:38;103411.97;;;-6.75;100.00
78562;BME280;68963;52.138;5.446;2024-01-11T03:21:05;103407.69;;;-6.74;100.00
78562;BME280;68963;52.138;5.446;2024-01-11T03:23:32;103400.88;;;-6.75;100.00
78562;BME280;68963;52.138;5.446;2024-01-11T03:25:58;103406.84;;;-6.75;100.00
78562;BME280;68963;52.138;5.446;2024-01-11T03:28:25;103402.56;;;-6.74;100.00
78562;BME280;68963;52.138;5.446;2024-01-11T03:30:52;103400.84;;;-6.72;100.00
78562;BME280;68963;52.138;5.446;2024-01-11T03:33:18;103411.94;;;-6.72;100.00
78562;BME280;68963;52.138;5.446;2024-01-11T03:35:46;103417.06;;;-6.72;100.00
78562;BME280;68963;52.138;5.446;2024-01-11T03:38:13;103416.22;;;-6.74;100.00
78562;BME280;68963;52.138;5.446;2024-01-11T03:40:40;103405.97;;;-6.72;100.00
78562;BME280;68963;52.138;5.446;2024-01-11T03:43:06;103413.66;;;-6.71;100.00
78562;BME280;68963;52.138;5.446;2024-01-11T03:45:33;103415.34;;;-6.68;100.00
78562;BME280;68963;52.138;5.446;2024-01-11T03:47:59;103407.63;;;-6.65;100.00
78562;BME280;68963;52.138;5.446;2024-01-11T03:50:26;103405.06;;;-6.65;100.00
78562;BME280;68963;52.138;5.446;2024-01-11T03:52:53;103404.25;;;-6.69;100.00
78562;BME280;68963;52.138;5.446;2024-01-11T03:55:19;103405.97;;;-6.69;100.00
78562;BME280;68963;52.138;5.446;2024-01-11T03:57:47;103411.09;;;-6.69;100.00
78562;BME280;68963;52.138;5.446;2024-01-11T04:00:14;103417.06;;;-6.70;100.00
78562;BME280;68963;52.138;5.446;2024-01-11T04:02:40;103432.47;;;-6.72;100.00
78562;BME280;68963;52.138;5.446;2024-01-11T04:05:07;103423.91;;;-6.71;100.00
78562;BME280;68963;52.138;5.446;2024-01-11T04:07:34;103421.34;;;-6.71;100.00
78562;BME280;68963;52.138;5.446;2024-01-11T04:10:00;103431.59;;;-6.71;100.00
78562;BME280;68963;52.138;5.446;2024-01-11T04:12:27;103424.78;;;-6.72;100.00
78562;BME280;68963;52.138;5.446;2024-01-11T04:14:54;103435.03;;;-6.73;100.00
78562;BME280;68963;52.138;5.446;2024-01-11T04:17:20;103439.28;;;-6.72;100.00
78562;BME280;68963;52.138;5.446;2024-01-11T04:19:47;103440.16;;;-6.73;100.00
78562;BME280;68963;52.138;5.446;2024-01-11T04:22:13;103441.00;;;-6.74;100.00
78562;BME280;68963;52.138;5.446;2024-01-11T04:24:42;103440.16;;;-6.73;100.00
78562;BME280;68963;52.138;5.446;2024-01-11T04:27:09;103454.69;;;-6.72;100.00
78562;BME280;68963;52.138;5.446;2024-01-11T04:29:35;103452.09;;;-6.72;100.00
78562;BME280;68963;52.138;5.446;2024-01-11T04:32:02;103452.09;;;-6.72;100.00
78562;BME280;68963;52.138;5.446;2024-01-11T04:34:31;103444.44;;;-6.75;100.00
78562;BME280;68963;52.138;5.446;2024-01-11T04:36:58;103460.66;;;-6.73;100.00
78562;BME280;68963;52.138;5.446;2024-01-11T04:39:26;103457.25;;;-6.72;100.00
78562;BME280;68963;52.138;5.446;2024-01-11T04:41:52;103446.97;;;-6.71;100.00
78562;BME280;68963;52.138;5.446;2024-01-11T04:44:19;103455.50;;;-6.69;100.00
78562;BME280;68963;52.138;5.446;2024-01-11T04:46:45;103460.63;;;-6.69;100.00
78562;BME280;68963;52.138;5.446;2024-01-11T04:49:12;103453.75;;;-6.67;100.00
78562;BME280;68963;52.138;5.446;2024-01-11T04:51:39;103454.63;;;-6.68;100.00
78562;BME280;68963;52.138;5.446;2024-01-11T04:54:05;103458.06;;;-6.69;100.00
78562;BME280;68963;52.138;5.446;2024-01-11T04:56:32;103458.06;;;-6.69;100.00
78562;BME280;68963;52.138;5.446;2024-01-11T04:58:59;103470.00;;;-6.68;100.00
78562;BME280;68963;52.138;5.446;2024-01-11T05:01:25;103466.63;;;-6.70;100.00
78562;BME280;68963;52.138;5.446;2024-01-11T05:03:52;103457.25;;;-6.72;100.00
78562;BME280;68963;52.138;5.446;2024-01-11T05:06:20;103446.97;;;-6.74;100.00
78562;BME280;68963;52.138;5.446;2024-01-11T05:08:51;103440.13;;;-6.70;100.00
78562;BME280;68963;52.138;5.446;2024-01-11T05:11:20;103443.56;;;-6.73;100.00
78562;BME280;68963;52.138;5.446;2024-01-11T05:13:48;103454.66;;;-6.71;100.00
78562;BME280;68963;52.138;5.446;2024-01-11T05:16:26;103459.78;;;-6.72;100.00
78562;BME280;68963;52.138;5.446;2024-01-11T05:18:54;103460.63;;;-6.70;100.00
78562;BME280;68963;52.138;5.446;2024-01-11T05:21:22;103449.53;;;-6.74;100.00
78562;BME280;68963;52.138;5.446;2024-01-11T05:23:49;103439.31;;;-6.75;100.00
78562;BME280;68963;52.138;5.446;2024-01-11T05:26:17;103445.31;;;-6.76;100.00
78562;BME280;68963;52.138;5.446;2024-01-11T05:28:44;103436.78;;;-6.78;100.00
78562;BME280;68963;52.138;5.446;2024-01-11T05:31:12;103434.22;;;-6.80;100.00
78562;BME280;68963;52.138;5.446;2024-01-11T05:33:39;103422.28;;;-6.83;100.00
78562;BME280;68963;52.138;5.446;2024-01-11T05:36:06;103410.31;;;-6.81;100.00
78562;BME280;68963;52.138;5.446;2024-01-11T05:38:33;103418.88;;;-6.83;100.00
78562;BME280;68963;52.138;5.446;2024-01-11T05:41:00;103422.31;;;-6.84;100.00
78562;BME280;68963;52.138;5.446;2024-01-11T05:43:27;103435.97;;;-6.85;100.00
78562;BME280;68963;52.138;5.446;2024-01-11T05:45:53;103433.44;;;-6.88;100.00
78562;BME280;68963;52.138;5.446;2024-01-11T05:48:20;103420.63;;;-6.87;100.00
78562;BME280;68963;52.138;5.446;2024-01-11T05:50:47;103417.19;;;-6.89;100.00
78562;BME280;68963;52.138;5.446;2024-01-11T05:53:13;103434.31;;;-6.91;100.00
78562;BME280;68963;52.138;5.446;2024-01-11T05:55:40;103443.69;;;-6.90;100.00
78562;BME280;68963;52.138;5.446;2024-01-11T05:58:06;103444.56;;;-6.91;100.00
78562;BME280;68963;52.138;5.446;2024-01-11T06:00:33;103445.44;;;-6.92;100.00
78562;BME280;68963;52.138;5.446;2024-01-11T06:03:00;103458.22;;;-6.90;100.00
78562;BME280;68963;52.138;5.446;2024-01-11T06:05:26;103456.53;;;-6.91;100.00
78562;BME280;68963;52.138;5.446;2024-01-11T06:07:53;103456.53;;;-6.94;100.00
78562;BME280;68963;52.138;5.446;2024-01-11T06:10:20;103465.06;;;-6.94;100.00
78562;BME280;68963;52.138;5.446;2024-01-11T06:12:46;103454.81;;;-6.94;100.00
78562;BME280;68963;52.138;5.446;2024-01-11T06:15:13;103471.06;;;-6.95;100.00
78562;BME280;68963;52.138;5.446;2024-01-11T06:17:40;103489.00;;;-6.95;100.00
78562;BME280;68963;52.138;5.446;2024-01-11T06:20:07;103504.38;;;-6.98;100.00
78562;BME280;68963;52.138;5.446;2024-01-11T06:22:35;103518.06;;;-6.99;100.00
78562;BME280;68963;52.138;5.446;2024-01-11T06:25:02;103522.34;;;-6.99;100.00
78562;BME280;68963;52.138;5.446;2024-01-11T06:27:28;103519.75;;;-6.98;100.00
78562;BME280;68963;52.138;5.446;2024-01-11T06:29:55;103520.59;;;-6.97;100.00
78562;BME280;68963;52.138;5.446;2024-01-11T06:32:21;103518.88;;;-6.97;100.00
78562;BME280;68963;52.138;5.446;2024-01-11T06:34:48;103524.00;;;-6.95;100.00
78562;BME280;68963;52.138;5.446;2024-01-11T06:37:15;103536.81;;;-6.97;100.00
78562;BME280;68963;52.138;5.446;2024-01-11T06:39:41;103536.00;;;-6.99;100.00
78562;BME280;68963;52.138;5.446;2024-01-11T06:42:08;103544.53;;;-6.98;100.00
78562;BME280;68963;52.138;5.446;2024-01-11T06:44:34;103540.25;;;-6.98;100.00
78562;BME280;68963;52.138;5.446;2024-01-11T06:47:01;103536.81;;;-6.97;100.00
78562;BME280;68963;52.138;5.446;2024-01-11T06:49:30;103531.69;;;-6.97;100.00
78562;BME280;68963;52.138;5.446;2024-01-11T06:51:57;103535.09;;;-6.95;100.00
78562;BME280;68963;52.138;5.446;2024-01-11T06:54:23;103536.81;;;-6.95;100.00
78562;BME280;68963;52.138;5.446;2024-01-11T06:56:50;103542.78;;;-6.95;100.00
78562;BME280;68963;52.138;5.446;2024-01-11T06:59:16;103550.47;;;-6.93;100.00
78562;BME280;68963;52.138;5.446;2024-01-11T07:01:45;103552.16;;;-6.92;100.00
78562;BME280;68963;52.138;5.446;2024-01-11T07:04:11;103546.19;;;-6.93;100.00
78562;BME280;68963;52.138;5.446;2024-01-11T07:06:38;103542.75;;;-6.90;100.00
78562;BME280;68963;52.138;5.446;2024-01-11T07:09:05;103544.47;;;-6.88;100.00
78562;BME280;68963;52.138;5.446;2024-01-11T07:11:32;103535.03;;;-6.86;100.00
78562;BME280;68963;52.138;5.446;2024-01-11T07:13:59;103541.88;;;-6.86;100.00
78562;BME280;68963;52.138;5.446;2024-01-11T07:16:26;103534.22;;;-6.85;100.00
78562;BME280;68963;52.138;5.446;2024-01-11T07:18:52;103523.97;;;-6.85;100.00
78562;BME280;68963;52.138;5.446;2024-01-11T07:21:22;103523.06;;;-6.85;100.00
78562;BME280;68963;52.138;5.446;2024-01-11T07:23:56;103518.00;;;-6.90;100.00
78562;BME280;68963;52.138;5.446;2024-01-11T07:26:26;103512.88;;;-6.91;100.00
78562;BME280;68963;52.138;5.446;2024-01-11T07:28:53;103509.44;;;-6.89;100.00
78562;BME280;68963;52.138;5.446;2024-01-11T07:31:23;103506.88;;;-6.89;100.00
78562;BME280;68963;52.138;5.446;2024-01-11T07:33:50;103498.31;;;-6.86;100.00
78562;BME280;68963;52.138;5.446;2024-01-11T07:36:17;103502.59;;;-6.85;100.00
78562;BME280;68963;52.138;5.446;2024-01-11T07:38:44;103515.38;;;-6.82;100.00
78562;BME280;68963;52.138;5.446;2024-01-11T07:41:10;103529.03;;;-6.82;100.00
78562;BME280;68963;52.138;5.446;2024-01-11T07:43:38;103529.91;;;-6.79;100.00
78562;BME280;68963;52.138;5.446;2024-01-11T07:46:19;103529.88;;;-6.78;100.00
78562;BME280;68963;52.138;5.446;2024-01-11T07:48:58;103520.47;;;-6.77;100.00
78562;BME280;68963;52.138;5.446;2024-01-11T07:51:25;103516.22;;;-6.78;100.00
78562;BME280;68963;52.138;5.446;2024-01-11T07:53:53;103510.22;;;-6.76;100.00
78562;BME280;68963;52.138;5.446;2024-01-11T07:56:20;103511.94;;;-6.73;100.00
78562;BME280;68963;52.138;5.446;2024-01-11T07:58:46;103511.88;;;-6.69;100.00
78562;BME280;68963;52.138;5.446;2024-01-11T08:01:16;103536.63;;;-6.65;100.00
78562;BME280;68963;52.138;5.446;2024-01-11T08:03:43;103539.19;;;-6.62;100.00
78562;BME280;68963;52.138;5.446;2024-01-11T08:06:12;103532.31;;;-6.58;100.00
78562;BME280;68963;52.138;5.446;2024-01-11T08:08:39;103515.22;;;-6.54;100.00
78562;BME280;68963;52.138;5.446;2024-01-11T08:11:09;103522.88;;;-6.53;100.00
78562;BME280;68963;52.138;5.446;2024-01-11T08:13:36;103518.56;;;-6.49;100.00
78562;BME280;68963;52.138;5.446;2024-01-11T08:16:04;103515.13;;;-6.45;100.00
78562;BME280;68963;52.138;5.446;2024-01-11T08:18:33;103514.25;;;-6.43;100.00
78562;BME280;68963;52.138;5.446;2024-01-11T08:21:00;103521.06;;;-6.42;100.00
78562;BME280;68963;52.138;5.446;2024-01-11T08:23:27;103513.34;;;-6.37;100.00
78562;BME280;68963;52.138;5.446;2024-01-11T08:25:53;103512.50;;;-6.36;100.00
78562;BME280;68963;52.138;5.446;2024-01-11T08:28:20;103519.31;;;-6.32;100.00
78562;BME280;68963;52.138;5.446;2024-01-11T08:30:47;103529.53;;;-6.30;100.00
78562;BME280;68963;52.138;5.446;2024-01-11T08:33:14;103538.91;;;-6.26;100.00
78562;BME280;68963;52.138;5.446;2024-01-11T08:35:41;103531.16;;;-6.20;100.00
78562;BME280;68963;52.138;5.446;2024-01-11T08:38:08;103537.09;;;-6.15;100.00
78562;BME280;68963;52.138;5.446;2024-01-11T08:40:35;103537.97;;;-6.15;100.00
78562;BME280;68963;52.138;5.446;2024-01-11T08:43:02;103545.63;;;-6.12;100.00
78562;BME280;68963;52.138;5.446;2024-01-11T08:45:30;103554.97;;;-6.08;100.00
78562;BME280;68963;52.138;5.446;2024-01-11T08:47:57;103562.66;;;-6.03;100.00
78562;BME280;68963;52.138;5.446;2024-01-11T08:50:24;103568.59;;;-5.98;100.00
78562;BME280;68963;52.138;5.446;2024-01-11T08:52:54;103575.41;;;-5.92;100.00
78562;BME280;68963;52.138;5.446;2024-01-11T08:55:22;103570.19;;;-5.88;100.00
78562;BME280;68963;52.138;5.446;2024-01-11T08:57:48;103583.78;;;-5.79;100.00
78562;BME280;68963;52.138;5.446;2024-01-11T09:00:15;103589.72;;;-5.74;100.00
78562;BME280;68963;52.138;5.446;2024-01-11T09:02:45;103593.94;;;-5.67;100.00
78562;BME280;68963;52.138;5.446;2024-01-11T09:05:15;103598.16;;;-5.59;100.00
78562;BME280;68963;52.138;5.446;2024-01-11T09:07:43;103598.91;;;-5.50;100.00
78562;BME280;68963;52.138;5.446;2024-01-11T09:10:10;103593.66;;;-5.40;100.00
78562;BME280;68963;52.138;5.446;2024-01-11T09:12:39;103602.13;;;-5.30;100.00
78562;BME280;68963;52.138;5.446;2024-01-11T09:15:06;103605.50;;;-5.25;100.00
78562;BME280;68963;52.138;5.446;2024-01-11T09:17:33;103602.81;;;-5.14;100.00
78562;BME280;68963;52.138;5.446;2024-01-11T09:20:00;103596.69;;;-5.05;100.00
78562;BME280;68963;52.138;5.446;2024-01-11T09:22:27;103602.53;;;-4.91;100.00
78562;BME280;68963;52.138;5.446;2024-01-11T09:24:54;103600.63;;;-4.77;100.00
78562;BME280;68963;52.138;5.446;2024-01-11T09:27:21;103600.47;;;-4.66;100.00
78562;BME280;68963;52.138;5.446;2024-01-11T09:29:48;103606.34;;;-4.56;100.00
78562;BME280;68963;52.138;5.446;2024-01-11T09:32:21;103607.09;;;-4.50;100.00
78562;BME280;68963;52.138;5.446;2024-01-11T09:34:47;103611.28;;;-4.43;100.00
78562;BME280;68963;52.138;5.446;2024-01-11T09:37:14;103609.44;;;-4.33;100.00
78562;BME280;68963;52.138;5.446;2024-01-11T09:39:40;103616.22;;;-4.29;100.00
78562;BME280;68963;52.138;5.446;2024-01-11T09:42:08;103617.00;;;-4.24;100.00
78562;BME280;68963;52.138;5.446;2024-01-11T09:44:39;103612.63;;;-4.17;100.00
78562;BME280;68963;52.138;5.446;2024-01-11T09:47:08;103609.97;;;-4.13;100.00
78562;BME280;68963;52.138;5.446;2024-01-11T09:49:40;103622.72;;;-4.03;100.00
78562;BME280;68963;52.138;5.446;2024-01-11T09:52:08;103627.78;;;-3.99;100.00
78562;BME280;68963;52.138;5.446;2024-01-11T09:54:37;103628.59;;;-3.97;100.00
78562;BME280;68963;52.138;5.446;2024-01-11T09:57:04;103614.81;;;-3.93;100.00
78562;BME280;68963;52.138;5.446;2024-01-11T09:59:32;103620.72;;;-3.88;100.00
78562;BME280;68963;52.138;5.446;2024-01-11T10:02:00;103612.88;;;-3.80;100.00
78562;BME280;68963;52.138;5.446;2024-01-11T10:04:27;103627.38;;;-3.74;100.00
78562;BME280;68963;52.138;5.446;2024-01-11T10:06:55;103633.31;;;-3.71;100.00
78562;BME280;68963;52.138;5.446;2024-01-11T10:09:23;103636.72;;;-3.69;100.00
78562;BME280;68963;52.138;5.446;2024-01-11T10:11:49;103631.50;;;-3.64;100.00
78562;BME280;68963;52.138;5.446;2024-01-11T10:14:17;103623.69;;;-3.59;100.00
78562;BME280;68963;52.138;5.446;2024-01-11T10:16:44;103638.22;;;-3.55;100.00
78562;BME280;68963;52.138;5.446;2024-01-11T10:19:12;103642.41;;;-3.51;100.00
78562;BME280;68963;52.138;5.446;2024-01-11T10:21:40;103638.94;;;-3.49;100.00
78562;BME280;68963;52.138;5.446;2024-01-11T10:24:07;103631.97;;;-3.42;100.00
78562;BME280;68963;52.138;5.446;2024-01-11T10:26:35;103630.09;;;-3.34;100.00
78562;BME280;68963;52.138;5.446;2024-01-11T10:29:02;103628.22;;;-3.26;100.00
78562;BME280;68963;52.138;5.446;2024-01-11T10:31:29;103622.97;;;-3.21;100.00
78562;BME280;68963;52.138;5.446;2024-01-11T10:33:57;103632.28;;;-3.14;100.00
78562;BME280;68963;52.138;5.446;2024-01-11T10:36:24;103632.16;;;-3.08;100.00
78562;BME280;68963;52.138;5.446;2024-01-11T10:38:52;103633.00;;;-3.07;100.00
78562;BME280;68963;52.138;5.446;2024-01-11T10:41:20;103626.94;;;-3.05;100.00
78562;BME280;68963;52.138;5.446;2024-01-11T10:43:48;103633.69;;;-2.99;100.00
78562;BME280;68963;52.138;5.446;2024-01-11T10:46:14;103631.13;;;-2.99;100.00
78562;BME280;68963;52.138;5.446;2024-01-11T10:48:44;103626.66;;;-2.91;100.00
78562;BME280;68963;52.138;5.446;2024-01-11T10:51:12;103639.47;;;-2.86;100.00
78562;BME280;68963;52.138;5.446;2024-01-11T10:53:43;103641.94;;;-2.82;100.00
78562;BME280;68963;52.138;5.446;2024-01-11T10:56:13;103647.06;;;-2.79;100.00
78562;BME280;68963;52.138;5.446;2024-01-11T10:58:43;103646.84;;;-2.70;100.00
78562;BME280;68963;52.138;5.446;2024-01-11T11:01:11;103642.47;;;-2.66;100.00
78562;BME280;68963;52.138;5.446;2024-01-11T11:03:39;103637.31;;;-2.64;100.00
78562;BME280;68963;52.138;5.446;2024-01-11T11:06:11;103636.28;;;-2.57;100.00
78562;BME280;68963;52.138;5.446;2024-01-11T11:08:38;103650.78;;;-2.52;100.00
78562;BME280;68963;52.138;5.446;2024-01-11T11:11:06;103648.97;;;-2.48;100.00
78562;BME280;68963;52.138;5.446;2024-01-11T11:13:34;103651.53;;;-2.47;100.00
78562;BME280;68963;52.138;5.446;2024-01-11T11:16:01;103638.53;;;-2.42;100.00
78562;BME280;68963;52.138;5.446;2024-01-11T11:18:31;103646.03;;;-2.33;100.00
78562;BME280;68963;52.138;5.446;2024-01-11T11:21:00;103636.53;;;-2.31;100.00
78562;BME280;68963;52.138;5.446;2024-01-11T11:23:27;103642.50;;;-2.29;100.00
78562;BME280;68963;52.138;5.446;2024-01-11T11:25:54;103646.66;;;-2.22;100.00
78562;BME280;68963;52.138;5.446;2024-01-11T11:28:25;103636.13;;;-2.14;100.00
78562;BME280;68963;52.138;5.446;2024-01-11T11:30:52;103631.69;;;-2.07;100.00
78562;BME280;68963;52.138;5.446;2024-01-11T11:33:23;103633.28;;;-2.02;100.00
78562;BME280;68963;52.138;5.446;2024-01-11T11:35:54;103632.38;;;-2.01;100.00
78562;BME280;68963;52.138;5.446;2024-01-11T11:38:23;103624.44;;;-1.93;100.00
78562;BME280;68963;52.138;5.446;2024-01-11T11:40:52;103621.75;;;-1.88;100.00
78562;BME280;68963;52.138;5.446;2024-01-11T11:43:20;103618.25;;;-1.86;100.00
78562;BME280;68963;52.138;5.446;2024-01-11T11:45:48;103622.53;;;-1.85;100.00
78562;BME280;68963;52.138;5.446;2024-01-11T11:51:12;103618.69;;;-1.70;100.00
78562;BME280;68963;52.138;5.446;2024-01-11T11:53:42;103613.44;;;-1.65;100.00
78562;BME280;68963;52.138;5.446;2024-01-11T11:56:10;103614.97;;;-1.58;100.00
78562;BME280;68963;52.138;5.446;2024-01-11T11:58:37;103608.69;;;-1.50;100.00
78562;BME280;68963;52.138;5.446;2024-01-11T12:01:05;103600.78;;;-1.43;100.00
78562;BME280;68963;52.138;5.446;2024-01-11T12:03:33;103592.91;;;-1.39;100.00
78562;BME280;68963;52.138;5.446;2024-01-11T12:06:08;103585.84;;;-1.34;100.00
78562;BME280;68963;52.138;5.446;2024-01-11T12:08:36;103572.69;;;-1.25;100.00
78562;BME280;68963;52.138;5.446;2024-01-11T12:11:04;103564.66;;;-1.15;100.00
78562;BME280;68963;52.138;5.446;2024-01-11T12:13:32;103555.03;;;-1.10;100.00
78562;BME280;68963;52.138;5.446;2024-01-11T12:15:59;103552.22;;;-1.03;100.00
78562;BME280;68963;52.138;5.446;2024-01-11T12:18:26;103550.28;;;-0.96;100.00
78562;BME280;68963;52.138;5.446;2024-01-11T12:20:53;103550.16;;;-0.91;100.00
78562;BME280;68963;52.138;5.446;2024-01-11T12:23:20;103544.94;;;-0.90;100.00
78562;BME280;68963;52.138;5.446;2024-01-11T12:25:47;103547.28;;;-0.82;100.00
78562;BME280;68963;52.138;5.446;2024-01-11T12:28:14;103550.53;;;-0.76;100.00
78562;BME280;68963;52.138;5.446;2024-01-11T12:30:41;103545.31;;;-0.74;100.00
78562;BME280;68963;52.138;5.446;2024-01-11T12:33:09;103551.22;;;-0.70;100.00
78562;BME280;68963;52.138;5.446;2024-01-11T12:35:37;103543.38;;;-0.67;100.00
78562;BME280;68963;52.138;5.446;2024-01-11T12:38:05;103549.41;;;-0.67;100.00
78562;BME280;68963;52.138;5.446;2024-01-11T12:40:33;103544.09;;;-0.62;100.00
78562;BME280;68963;52.138;5.446;2024-01-11T12:43:07;103546.47;;;-0.56;100.00
78562;BME280;68963;52.138;5.446;2024-01-11T12:45:34;103542.09;;;-0.54;100.00
78562;BME280;68963;52.138;5.446;2024-01-11T12:48:02;103541.28;;;-0.56;100.00